createdAt,value
2023-05-16T00:01:54.746Z,4.30
2023-05-16T00:04:23.015Z,4.70
2023-05-16T00:06:49.997Z,3.60
2023-05-16T00:09:17.884Z,4.10
2023-05-16T00:11:48.232Z,3.70
2023-05-16T00:14:15.265Z,3.80
2023-05-16T00:16:42.364Z,3.73
2023-05-16T00:19:10.541Z,3.57
2023-05-16T00:21:37.525Z,3.87
2023-05-16T00:24:05.868Z,4.00
2023-05-16T00:26:35.089Z,3.80
2023-05-16T00:29:04.500Z,3.90
2023-05-16T00:31:31.753Z,4.47
2023-05-16T00:34:01.146Z,3.67
2023-05-16T00:36:29.071Z,3.80
2023-05-16T00:38:56.453Z,4.33
2023-05-16T00:41:28.597Z,3.70
2023-05-16T00:43:57.960Z,3.73
2023-05-16T00:46:27.390Z,3.47
2023-05-16T00:48:54.508Z,4.27
2023-05-16T00:51:21.746Z,4.37
2023-05-16T00:53:48.869Z,3.40
2023-05-16T00:56:17.218Z,3.53
2023-05-16T00:58:44.543Z,3.60
2023-05-16T01:01:12.549Z,3.50
2023-05-16T01:03:39.909Z,3.30
2023-05-16T01:06:07.321Z,2.80
2023-05-16T01:08:34.307Z,3.10
2023-05-16T01:11:17.044Z,2.83
2023-05-16T01:14:08.598Z,2.90
2023-05-16T01:17:12.854Z,2.67
2023-05-16T01:20:15.297Z,2.73
2023-05-16T01:23:14.788Z,3.30
2023-05-16T01:26:16.119Z,3.20
2023-05-16T01:28:46.923Z,2.87
2023-05-16T01:31:14.286Z,3.20
2023-05-16T01:33:41.330Z,2.40
2023-05-16T01:36:22.605Z,3.10
2023-05-16T01:39:01.857Z,4.10
2023-05-16T01:41:35.562Z,4.30
2023-05-16T01:44:17.149Z,3.53
2023-05-16T01:46:48.292Z,4.03
2023-05-16T01:49:31.883Z,3.97
2023-05-16T01:52:11.836Z,3.67
2023-05-16T01:54:45.127Z,4.10
2023-05-16T01:57:16.347Z,4.03
2023-05-16T01:59:47.524Z,3.57
2023-05-16T02:02:14.871Z,4.20
2023-05-16T02:04:42.084Z,3.43
2023-05-16T02:07:09.201Z,3.60
2023-05-16T02:09:36.381Z,3.70
2023-05-16T02:12:04.546Z,3.70
2023-05-16T02:14:31.553Z,2.97
2023-05-16T02:16:58.820Z,3.00
2023-05-16T02:19:25.747Z,2.87
2023-05-16T02:21:55.735Z,3.23
2023-05-16T02:24:22.626Z,2.67
2023-05-16T02:26:49.669Z,2.50
2023-05-16T02:29:19.060Z,3.40
2023-05-16T02:31:48.279Z,2.77
2023-05-16T02:34:17.254Z,2.40
2023-05-16T02:36:44.190Z,2.87
2023-05-16T02:39:11.411Z,2.57
2023-05-16T02:41:38.463Z,2.93
2023-05-16T02:44:05.768Z,2.50
2023-05-16T02:46:52.860Z,2.10
2023-05-16T02:49:21.968Z,2.80
2023-05-16T02:51:49.042Z,3.40
2023-05-16T02:54:16.013Z,3.80
2023-05-16T02:56:45.137Z,3.83
2023-05-16T02:59:13.140Z,3.47
2023-05-16T03:01:40.390Z,4.17
2023-05-16T03:04:07.548Z,4.40
2023-05-16T03:06:37.054Z,3.97
2023-05-16T03:09:04.002Z,4.03
2023-05-16T03:11:31.035Z,4.40
2023-05-16T03:14:02.588Z,3.43
2023-05-16T03:16:29.552Z,3.50
2023-05-16T03:18:57.169Z,3.70
2023-05-16T03:21:24.200Z,3.70
2023-05-16T03:23:51.146Z,3.70
2023-05-16T03:26:21.351Z,3.97
2023-05-16T03:28:51.559Z,4.47
2023-05-16T03:31:18.570Z,3.27
2023-05-16T03:33:45.729Z,3.53
2023-05-16T03:36:12.790Z,3.20
2023-05-16T03:38:39.857Z,3.40
2023-05-16T03:41:09.281Z,3.33
2023-05-16T03:43:36.696Z,2.60
2023-05-16T03:46:06.357Z,2.90
2023-05-16T03:48:36.340Z,2.37
2023-05-16T03:51:03.335Z,2.40
2023-05-16T03:53:30.337Z,2.10
2023-05-16T03:55:57.375Z,2.10
2023-05-16T03:58:27.227Z,2.50
2023-05-16T04:00:56.564Z,2.47
2023-05-16T04:03:28.480Z,2.60
2023-05-16T04:06:00.806Z,3.20
2023-05-16T04:08:27.763Z,2.63
2023-05-16T04:10:57.773Z,3.43
2023-05-16T04:13:27.393Z,3.07
2023-05-16T04:15:54.562Z,2.17
2023-05-16T04:18:23.671Z,2.30
2023-05-16T04:20:50.611Z,2.43
2023-05-16T04:23:22.080Z,2.20
2023-05-16T04:25:49.098Z,2.40
2023-05-16T04:28:18.411Z,3.03
2023-05-16T04:30:48.745Z,2.50
2023-05-16T04:33:16.727Z,3.00
2023-05-16T04:35:49.908Z,2.70
2023-05-16T04:38:16.913Z,2.50
2023-05-16T04:40:46.872Z,2.70
2023-05-16T04:43:13.972Z,4.30
2023-05-16T04:45:42.874Z,3.80
2023-05-16T04:48:10.737Z,2.37
2023-05-16T04:50:37.947Z,2.83
2023-05-16T04:53:07.136Z,3.33
2023-05-16T04:55:34.324Z,2.77
2023-05-16T04:58:03.932Z,3.57
2023-05-16T05:00:30.908Z,3.23
2023-05-16T05:02:57.985Z,2.73
2023-05-16T05:05:25.210Z,3.70
2023-05-16T05:07:52.653Z,3.70
2023-05-16T05:10:19.696Z,3.20
2023-05-16T05:12:49.121Z,3.40
2023-05-16T05:15:16.191Z,3.20
2023-05-16T05:17:43.234Z,3.53
2023-05-16T05:20:11.800Z,2.70
2023-05-16T05:22:38.963Z,3.33
2023-05-16T05:25:11.284Z,2.60
2023-05-16T05:27:42.809Z,2.70
2023-05-16T05:30:12.671Z,3.07
2023-05-16T05:32:42.106Z,3.00
2023-05-16T05:35:12.426Z,2.70
2023-05-16T05:37:39.365Z,2.60
2023-05-16T05:40:07.519Z,2.97
2023-05-16T05:42:34.532Z,3.37
2023-05-16T05:45:01.710Z,2.30
2023-05-16T05:47:31.082Z,2.73
2023-05-16T05:50:01.246Z,3.40
2023-05-16T05:52:28.484Z,3.37
2023-05-16T05:54:55.577Z,2.87
2023-05-16T05:57:22.758Z,3.30
2023-05-16T05:59:49.989Z,2.70
2023-05-16T06:02:17.629Z,2.97
2023-05-16T06:04:45.387Z,2.30
2023-05-16T06:07:12.949Z,3.70
2023-05-16T06:09:39.960Z,3.17
2023-05-16T06:12:12.533Z,2.63
2023-05-16T06:14:40.242Z,2.07
2023-05-16T06:17:07.375Z,2.70
2023-05-16T06:19:38.949Z,3.90
2023-05-16T06:22:11.247Z,2.20
2023-05-16T06:24:38.496Z,2.50
2023-05-16T06:27:06.066Z,3.70
2023-05-16T06:29:33.092Z,2.43
2023-05-16T06:32:00.117Z,2.40
2023-05-16T06:34:29.690Z,2.23
2023-05-16T06:36:56.832Z,2.93
2023-05-16T06:39:26.361Z,2.60
2023-05-16T06:41:56.682Z,3.03
2023-05-16T06:44:27.730Z,2.87
2023-05-16T06:46:57.886Z,2.17
2023-05-16T06:49:24.981Z,2.10
2023-05-16T06:51:54.442Z,2.03
2023-05-16T06:54:25.769Z,2.00
2023-05-16T06:56:55.748Z,2.27
2023-05-16T06:59:22.846Z,1.80
2023-05-16T07:01:52.694Z,2.10
2023-05-16T07:04:19.978Z,1.80
2023-05-16T07:06:47.023Z,2.07
2023-05-16T07:09:14.283Z,1.90
2023-05-16T07:11:43.869Z,2.20
2023-05-16T07:14:13.996Z,2.40
2023-05-16T07:16:41.187Z,2.33
2023-05-16T07:19:08.658Z,2.23
2023-05-16T07:21:35.865Z,2.47
2023-05-16T07:24:02.994Z,3.67
2023-05-16T07:26:30.157Z,2.80
2023-05-16T07:29:05.090Z,2.63
2023-05-16T07:31:32.392Z,2.30
2023-05-16T07:33:59.586Z,2.87
2023-05-16T07:36:26.774Z,3.50
2023-05-16T07:38:53.771Z,2.83
2023-05-16T07:41:21.799Z,2.33
2023-05-16T07:43:48.798Z,2.70
2023-05-16T07:46:15.988Z,2.97
2023-05-16T07:48:45.708Z,2.00
2023-05-16T07:51:12.829Z,3.50
2023-05-16T07:53:39.825Z,2.53
2023-05-16T07:56:08.574Z,2.53
2023-05-16T07:58:39.068Z,2.60
2023-05-16T08:01:06.652Z,2.80
2023-05-16T08:03:33.942Z,2.33
2023-05-16T08:06:01.383Z,2.80
2023-05-16T08:08:31.192Z,2.60
2023-05-16T08:11:00.426Z,1.90
2023-05-16T08:13:27.414Z,1.70
2023-05-16T08:15:59.104Z,2.10
2023-05-16T08:18:26.228Z,1.63
2023-05-16T08:20:53.193Z,1.83
2023-05-16T08:23:22.544Z,1.63
2023-05-16T08:25:52.062Z,1.40
2023-05-16T08:28:19.205Z,1.60
2023-05-16T08:30:48.028Z,2.47
2023-05-16T08:33:16.054Z,1.50
2023-05-16T08:35:44.462Z,2.10
2023-05-16T08:38:14.207Z,2.03
2023-05-16T08:40:42.891Z,1.70
2023-05-16T08:43:12.546Z,1.73
2023-05-16T08:45:42.807Z,1.70
2023-05-16T08:48:12.080Z,2.33
2023-05-16T08:50:39.720Z,2.13
2023-05-16T08:53:09.921Z,2.00
2023-05-16T08:55:38.066Z,2.03
2023-05-16T08:58:08.102Z,1.93
2023-05-16T09:00:36.367Z,1.90
2023-05-16T09:03:04.064Z,1.57
2023-05-16T09:05:34.228Z,1.40
2023-05-16T09:08:01.280Z,1.87
2023-05-16T09:10:31.177Z,1.57
2023-05-16T09:13:00.481Z,1.80
2023-05-16T09:15:33.591Z,2.10
2023-05-16T09:18:06.394Z,1.70
2023-05-16T09:20:33.406Z,2.10
2023-05-16T09:23:01.178Z,2.00
2023-05-16T09:25:33.416Z,2.40
2023-05-16T09:28:03.319Z,2.50
2023-05-16T09:30:35.325Z,2.50
2023-05-16T09:33:03.337Z,2.30
2023-05-16T09:35:43.849Z,2.10
2023-05-16T09:38:22.392Z,1.50
2023-05-16T09:40:51.925Z,1.80
2023-05-16T09:43:23.497Z,1.77
2023-05-16T09:45:53.060Z,2.83
2023-05-16T09:48:21.988Z,1.60
2023-05-16T09:50:53.260Z,1.97
2023-05-16T09:53:32.604Z,1.80
2023-05-16T09:56:04.501Z,1.40
2023-05-16T09:58:33.020Z,1.67
2023-05-16T10:01:00.195Z,1.90
2023-05-16T10:03:27.935Z,1.60
2023-05-16T10:05:56.245Z,1.67
2023-05-16T10:08:27.488Z,1.63
2023-05-16T10:10:56.926Z,1.67
2023-05-16T10:13:32.140Z,2.20
2023-05-16T10:16:11.277Z,1.87
2023-05-16T10:18:41.193Z,1.60
2023-05-16T10:21:18.218Z,2.07
2023-05-16T10:23:52.636Z,1.87
2023-05-16T10:26:23.622Z,1.30
2023-05-16T10:28:52.071Z,2.10
2023-05-16T10:31:19.784Z,1.73
2023-05-16T10:33:48.067Z,1.93
2023-05-16T10:36:17.001Z,1.73
2023-05-16T10:38:48.152Z,2.20
2023-05-16T10:41:18.157Z,2.00
2023-05-16T10:43:56.892Z,2.40
2023-05-16T10:46:25.596Z,2.27
2023-05-16T10:48:56.543Z,2.00
2023-05-16T10:51:40.268Z,1.77
2023-05-16T10:54:12.803Z,1.47
2023-05-16T10:56:40.333Z,1.60
2023-05-16T10:59:27.147Z,1.50
2023-05-16T11:01:56.563Z,2.33
2023-05-16T11:04:24.001Z,2.10
2023-05-16T11:06:56.685Z,1.80
2023-05-16T11:09:29.112Z,2.10
2023-05-16T11:12:04.381Z,2.97
2023-05-16T11:14:34.356Z,2.47
2023-05-16T11:17:23.301Z,1.97
2023-05-16T11:20:00.870Z,1.90
2023-05-16T11:22:41.483Z,2.23
2023-05-16T11:25:10.707Z,1.90
2023-05-16T11:27:48.277Z,1.67
2023-05-16T11:30:19.910Z,2.30
2023-05-16T11:32:48.768Z,1.63
2023-05-16T11:35:18.311Z,1.70
2023-05-16T11:37:47.108Z,2.20
2023-05-16T11:40:18.000Z,1.73
2023-05-16T11:42:48.052Z,1.93
2023-05-16T11:45:24.758Z,2.60
2023-05-16T11:47:52.435Z,1.80
2023-05-16T11:50:24.258Z,1.90
2023-05-16T11:52:56.742Z,1.87
2023-05-16T11:55:41.212Z,2.33
2023-05-16T11:58:12.546Z,2.47
2023-05-16T12:00:54.261Z,2.77
2023-05-16T12:03:24.355Z,2.10
2023-05-16T12:05:57.105Z,2.27
2023-05-16T12:08:26.828Z,2.27
2023-05-16T12:10:56.652Z,2.50
2023-05-16T12:13:28.205Z,2.03
2023-05-16T12:15:55.529Z,1.73
2023-05-16T12:18:25.349Z,1.93
2023-05-16T12:20:52.553Z,1.57
2023-05-16T12:23:19.876Z,1.77
2023-05-16T12:25:50.105Z,2.30
2023-05-16T12:28:17.375Z,1.73
2023-05-16T12:30:50.141Z,1.50
2023-05-16T12:33:17.467Z,1.67
2023-05-16T12:35:47.702Z,1.93
2023-05-16T12:38:17.432Z,1.93
2023-05-16T12:40:45.033Z,1.87
2023-05-16T12:43:16.532Z,2.00
2023-05-16T12:45:54.777Z,2.37
2023-05-16T12:48:32.438Z,1.70
2023-05-16T12:51:18.081Z,1.60
2023-05-16T12:54:01.382Z,2.07
2023-05-16T12:56:33.024Z,2.40
2023-05-16T12:59:00.065Z,2.60
2023-05-16T13:01:27.291Z,2.20
2023-05-16T13:03:54.544Z,1.50
2023-05-16T13:06:24.104Z,2.00
2023-05-16T13:08:53.556Z,1.53
2023-05-16T13:11:21.015Z,1.33
2023-05-16T13:13:48.147Z,1.70
2023-05-16T13:16:16.548Z,1.40
2023-05-16T13:18:46.243Z,1.90
2023-05-16T13:21:13.235Z,0.87
2023-05-16T13:23:40.220Z,1.23
2023-05-16T13:26:07.516Z,1.10
2023-05-16T13:28:34.534Z,1.90
2023-05-16T13:31:04.438Z,3.03
2023-05-16T13:33:31.464Z,1.23
2023-05-16T13:35:58.677Z,1.43
2023-05-16T13:38:28.781Z,1.73
2023-05-16T13:40:55.793Z,2.57
2023-05-16T13:43:22.794Z,1.60
2023-05-16T13:45:50.087Z,1.93
2023-05-16T13:48:19.635Z,1.50
2023-05-16T13:50:47.195Z,1.40
2023-05-16T13:53:16.818Z,1.30
2023-05-16T13:55:46.354Z,1.43
2023-05-16T13:58:13.439Z,1.70
2023-05-16T14:00:45.262Z,1.50
2023-05-16T14:03:13.876Z,1.50
2023-05-16T14:05:43.085Z,2.03
2023-05-16T14:08:14.210Z,1.50
2023-05-16T14:10:41.255Z,2.00
2023-05-16T14:13:10.872Z,1.70
2023-05-16T14:15:37.825Z,2.00
2023-05-16T14:18:07.606Z,1.70
2023-05-16T14:20:34.721Z,1.60
2023-05-16T14:23:03.900Z,1.57
2023-05-16T14:25:33.481Z,1.70
2023-05-16T14:28:00.544Z,1.30
2023-05-16T14:30:27.906Z,1.90
2023-05-16T14:32:55.215Z,1.73
2023-05-16T14:35:22.372Z,1.50
2023-05-16T14:37:52.017Z,1.17
2023-05-16T14:40:19.069Z,1.70
2023-05-16T14:42:46.298Z,1.50
2023-05-16T14:45:16.092Z,5.00
2023-05-16T14:47:43.819Z,1.30
2023-05-16T14:50:11.533Z,1.50
2023-05-16T14:52:41.355Z,2.20
2023-05-16T14:55:08.686Z,1.77
2023-05-16T14:57:38.210Z,1.63
2023-05-16T15:00:07.418Z,1.60
2023-05-16T15:02:34.517Z,1.77
2023-05-16T15:05:01.802Z,1.47
2023-05-16T15:07:29.020Z,1.50
2023-05-16T15:09:56.643Z,1.13
2023-05-16T15:12:23.686Z,1.50
2023-05-16T15:14:50.772Z,1.10
2023-05-16T15:17:19.978Z,1.97
2023-05-16T15:19:49.002Z,1.00
2023-05-16T15:22:15.953Z,1.00
2023-05-16T15:24:43.129Z,1.10
2023-05-16T15:27:12.273Z,1.10
2023-05-16T15:29:39.274Z,1.50
2023-05-16T15:32:06.950Z,1.30
2023-05-16T15:34:35.596Z,1.40
2023-05-16T15:37:05.086Z,0.90
2023-05-16T15:39:32.145Z,1.20
2023-05-16T15:42:09.914Z,2.47
2023-05-16T15:44:39.621Z,1.30
2023-05-16T15:47:10.798Z,1.77
2023-05-16T15:49:40.206Z,1.43
2023-05-16T15:52:08.840Z,1.63
2023-05-16T15:54:37.877Z,3.10
2023-05-16T15:57:05.244Z,1.00
2023-05-16T15:59:34.881Z,1.50
2023-05-16T16:02:05.436Z,1.50
2023-05-16T16:04:37.660Z,1.67
2023-05-16T16:07:10.905Z,2.07
2023-05-16T16:09:40.403Z,1.40
2023-05-16T16:12:08.074Z,1.00
2023-05-16T16:14:37.734Z,1.33
2023-05-16T16:17:07.367Z,1.57
2023-05-16T16:19:34.365Z,1.80
2023-05-16T16:22:01.459Z,1.97
2023-05-16T16:24:31.531Z,1.70
2023-05-16T16:26:58.501Z,2.33
2023-05-16T16:29:29.052Z,1.40
2023-05-16T16:31:58.889Z,1.70
2023-05-16T16:34:25.984Z,1.90
2023-05-16T16:36:53.244Z,2.60
2023-05-16T16:39:23.156Z,1.30
2023-05-16T16:41:54.708Z,1.60
2023-05-16T16:44:21.657Z,1.43
2023-05-16T16:46:48.671Z,1.83
2023-05-16T16:49:15.836Z,1.53
2023-05-16T16:51:42.901Z,1.60
2023-05-16T16:54:09.939Z,1.70
2023-05-16T16:56:39.966Z,1.90
2023-05-16T16:59:06.892Z,1.87
2023-05-16T17:01:35.028Z,1.90
2023-05-16T17:04:02.325Z,1.93
2023-05-16T17:06:30.222Z,1.40
2023-05-16T17:09:02.458Z,2.40
2023-05-16T17:11:36.302Z,1.57
2023-05-16T17:14:06.409Z,1.83
2023-05-16T17:16:34.145Z,2.80
2023-05-16T17:19:04.594Z,2.50
2023-05-16T17:21:36.792Z,2.90
2023-05-16T17:24:07.401Z,3.13
2023-05-16T17:26:37.011Z,2.90
2023-05-16T17:29:05.188Z,3.70
2023-05-16T17:31:34.680Z,2.77
2023-05-16T17:34:01.833Z,3.60
2023-05-16T17:36:31.047Z,3.67
2023-05-16T17:38:59.317Z,4.60
2023-05-16T17:41:28.804Z,3.90
2023-05-16T17:43:55.779Z,3.80
2023-05-16T17:46:22.689Z,2.47
2023-05-16T17:48:52.731Z,3.27
2023-05-16T17:51:22.008Z,3.43
2023-05-16T17:53:51.455Z,2.57
2023-05-16T17:56:21.346Z,3.60
2023-05-16T17:58:48.833Z,3.50
2023-05-16T18:01:19.142Z,3.20
2023-05-16T18:03:46.180Z,3.07
2023-05-16T18:06:13.873Z,3.27
2023-05-16T18:08:41.142Z,3.30
2023-05-16T18:11:08.155Z,3.17
2023-05-16T18:13:35.180Z,3.00
2023-05-16T18:16:02.614Z,3.20
2023-05-16T18:18:29.788Z,3.27
2023-05-16T18:20:57.026Z,3.50
2023-05-16T18:23:24.834Z,2.57
2023-05-16T18:25:51.884Z,3.57
2023-05-16T18:28:21.776Z,3.53
2023-05-16T18:30:49.446Z,2.80
2023-05-16T18:33:16.939Z,3.20
2023-05-16T18:35:43.943Z,3.10
2023-05-16T18:38:20.272Z,3.20
2023-05-16T18:40:56.011Z,2.83
2023-05-16T18:43:25.538Z,2.60
2023-05-16T18:45:52.742Z,2.60
2023-05-16T18:48:20.251Z,2.70
2023-05-16T18:50:47.335Z,2.70
2023-05-16T18:53:14.349Z,2.80
2023-05-16T18:55:44.393Z,3.00
2023-05-16T18:58:11.570Z,3.00
2023-05-16T19:00:38.554Z,3.63
2023-05-16T19:03:09.878Z,3.20
2023-05-16T19:05:37.549Z,3.07
2023-05-16T19:08:05.057Z,3.20
2023-05-16T19:10:38.202Z,3.63
2023-05-16T19:13:08.899Z,2.93
2023-05-16T19:15:37.171Z,3.50
2023-05-16T19:18:06.642Z,3.50
2023-05-16T19:20:37.012Z,3.40
2023-05-16T19:23:04.061Z,3.90
2023-05-16T19:25:33.904Z,3.60
2023-05-16T19:28:01.022Z,4.30
2023-05-16T19:30:28.547Z,3.57
2023-05-16T19:32:55.823Z,3.90
2023-05-16T19:35:23.397Z,4.90
2023-05-16T19:37:53.591Z,3.33
2023-05-16T19:40:20.573Z,3.60
2023-05-16T19:42:50.049Z,3.60
2023-05-16T19:45:17.267Z,4.13
2023-05-16T19:47:44.289Z,3.93
2023-05-16T19:50:16.308Z,4.17
2023-05-16T19:52:45.727Z,4.60
2023-05-16T19:55:13.372Z,4.20
2023-05-16T19:57:45.054Z,4.23
2023-05-16T20:00:16.508Z,3.83
2023-05-16T20:02:46.040Z,4.30
2023-05-16T20:05:14.558Z,4.67
2023-05-16T20:07:41.713Z,4.33
2023-05-16T20:10:10.089Z,4.20
2023-05-16T20:12:37.498Z,4.43
2023-05-16T20:15:08.322Z,3.90
2023-05-16T20:17:39.802Z,4.23
2023-05-16T20:20:09.548Z,4.10
2023-05-16T20:22:41.416Z,5.30
2023-05-16T20:25:10.409Z,5.47
2023-05-16T20:27:38.175Z,5.07
2023-05-16T20:30:07.673Z,5.63
2023-05-16T20:32:37.823Z,4.93
2023-05-16T20:35:09.115Z,4.80
2023-05-16T20:37:36.164Z,5.33
2023-05-16T20:40:03.736Z,5.20
2023-05-16T20:42:30.777Z,5.43
2023-05-16T20:44:57.934Z,5.43
2023-05-16T20:47:27.563Z,5.77
2023-05-16T20:49:56.835Z,5.20
2023-05-16T20:52:24.035Z,5.20
2023-05-16T20:54:53.184Z,5.00
2023-05-16T20:57:22.231Z,5.33
2023-05-16T20:59:49.264Z,4.90
2023-05-16T21:02:16.483Z,5.57
2023-05-16T21:04:45.831Z,5.70
2023-05-16T21:07:12.924Z,5.67
2023-05-16T21:09:40.717Z,5.77
2023-05-16T21:12:08.167Z,5.87
2023-05-16T21:14:38.069Z,6.60
2023-05-16T21:17:05.144Z,5.60
2023-05-16T21:19:35.501Z,5.10
2023-05-16T21:22:05.152Z,5.00
2023-05-16T21:24:35.647Z,5.67
2023-05-16T21:27:04.185Z,5.10
2023-05-16T21:29:31.438Z,5.43
2023-05-16T21:31:58.995Z,5.87
2023-05-16T21:34:26.143Z,5.20
2023-05-16T21:36:53.882Z,6.40
2023-05-16T21:39:20.976Z,6.00
2023-05-16T21:41:48.018Z,5.90
2023-05-16T21:44:18.572Z,5.77
2023-05-16T21:46:50.077Z,5.80
2023-05-16T21:49:19.302Z,6.63
2023-05-16T21:51:48.701Z,5.53
2023-05-16T21:54:17.827Z,5.70
2023-05-16T21:56:44.955Z,5.10
2023-05-16T21:59:14.244Z,5.00
2023-05-16T22:01:41.242Z,5.60
2023-05-16T22:04:09.057Z,5.70
2023-05-16T22:06:36.395Z,5.10
2023-05-16T22:09:03.546Z,5.37
2023-05-16T22:11:30.576Z,5.70
2023-05-16T22:13:57.691Z,5.27
2023-05-16T22:16:26.755Z,7.27
2023-05-16T22:18:56.327Z,6.20
2023-05-16T22:21:25.584Z,4.83
2023-05-16T22:23:52.595Z,5.13
2023-05-16T22:26:19.641Z,5.80
2023-05-16T22:28:51.225Z,5.17
2023-05-16T22:31:18.252Z,6.37
2023-05-16T22:33:51.015Z,5.20
2023-05-16T22:36:21.035Z,5.90
2023-05-16T22:38:51.322Z,6.53
2023-05-16T22:41:18.409Z,4.77
2023-05-16T22:43:45.496Z,4.80
2023-05-16T22:46:12.629Z,6.60
2023-05-16T22:48:44.442Z,4.80
2023-05-16T22:51:11.532Z,4.57
2023-05-16T22:53:40.799Z,5.83
2023-05-16T22:56:08.511Z,6.17
2023-05-16T22:58:38.271Z,5.43
2023-05-16T23:01:07.885Z,5.40
2023-05-16T23:03:35.166Z,6.00
2023-05-16T23:06:04.740Z,5.50
2023-05-16T23:08:31.809Z,5.60
2023-05-16T23:10:58.846Z,5.23
2023-05-16T23:13:28.373Z,5.57
2023-05-16T23:15:55.612Z,4.80
2023-05-16T23:18:22.713Z,5.60
2023-05-16T23:20:49.791Z,4.73
2023-05-16T23:23:19.435Z,5.43
2023-05-16T23:25:46.855Z,5.97
2023-05-16T23:28:14.945Z,5.33
2023-05-16T23:30:41.994Z,5.30
2023-05-16T23:33:11.345Z,5.70
2023-05-16T23:35:38.553Z,5.60
2023-05-16T23:38:05.574Z,6.10
2023-05-16T23:40:32.649Z,6.20
2023-05-16T23:42:59.833Z,6.10
2023-05-16T23:45:27.982Z,6.37
2023-05-16T23:47:55.086Z,6.37
2023-05-16T23:50:24.532Z,5.30
2023-05-16T23:52:51.599Z,5.50
2023-05-16T23:55:20.353Z,4.97
2023-05-16T23:57:47.610Z,6.00
